Terminal Aerodrome Forecast
Issued by NWS Sterling, VA

Home | Current Version | Previous Version | Text Only | Print | Product List | Glossary On
Versions: 1 2 3 4 5 6 7 8 9 10 11 12 13 14 15 16
000
FTUS41 KLWX 212328
TAFMRB
TAF
KMRB 212328Z 2200/2224 VRB03KT P6SM SCT250
     FM220800 VRB03KT 3SM BR FEW250
     FM221200 00000KT 5SM BR FEW040 SCT250
     FM221400 VRB03KT P6SM FEW040 FEW250=

USA.gov is the U.S. government's official web portal to all federal, state and local government web resources and services.